Data for 07/11/2015

Time Sea-Level Adjusted Pressure Absolute Pressure Temperature Relative Humidity Dew Point   
(mb) (inHg) (mb) (inHg) (C) (F) (%) (C) (F)
00:05 1016 30 845 24.95 15.4 59.6 72 10.5 50.8
00:10 1016 30 845 24.95 15.2 59.4 73 10.5 50.8
00:15 1016 30 845 24.95 15.1 59.1 72 10 50.1
00:20 1016 30 845 24.95 15.1 59.2 70 9.7 49.5
00:25 1016 30 845 24.95 15.1 59.3 67 9.2 48.6
00:30 1016 30 845 24.95 15.2 59.4 71 10.1 50.1
00:35 1016 30 845 24.95 15.2 59.3 69 9.6 49.3
00:40 1016 30 845 24.95 15.1 59.2 77 11.1 51.9
00:45 1016 30 845 24.95 15.1 59.1 74 10.5 50.8
00:50 1016 30 845 24.95 14.8 58.6 75 10.5 51
00:55 1016 30 845 24.95 14.7 58.4 77 10.8 51.4
01:00 1016 30 845 24.95 14.5 58.2 74 10 50
01:05 1016 30 845 24.95 14.8 58.6 73 10.1 50.1
01:10 1016 30 845 24.95 14.9 58.9 70 9.5 49.1
01:15 1016 30 845 24.95 15.1 59.2 68 9.2 48.6
01:20 1016 30 845 24.95 15.5 60 63 8.6 47.4
01:25 1016 30 845 24.95 16 60.7 62 8.7 47.7
01:30 1016 30 845 24.95 16.1 61 65 9.5 49.1
01:35 1016 30 845 24.95 15.8 60.5 71 10.6 51.1
01:40 1016 30 845 24.95 15.3 59.5 72 10.4 50.6
01:45 1016 30 845 24.95 14.9 58.9 72 9.9 49.8
01:50 1016 30 845 24.95 14.9 58.9 69 9.4 48.9
01:55 1016 30 845 24.95 15.1 59.2 72 10.1 50.2
02:00 1016 30 845 24.95 15.3 59.5 71 10.2 50.3
02:05 1016 30 845 24.95 15.5 59.9 71 10.3 50.6
02:10 1016 30 845 24.95 15.5 60 67 9.5 49.2
02:15 1016 30 845 24.95 15.5 59.9 65 8.9 48
02:20 1016 30 845 24.95 15.7 60.2 66 9.5 49.1
02:25 1016 30 845 24.95 15.7 60.3 69 10.1 50.2
02:30 1016 30 845 24.95 15.6 60.1 68 9.9 49.9
02:35 1016 30 845 24.95 15.6 60.1 67 9.6 49.3
02:40 1016 30 845 24.95 15.6 60.1 71 10.4 50.7
02:45 1016 30 845 24.95 15.5 59.8 73 10.7 51.3
02:50 1016 30 845 24.95 15.3 59.5 76 11 51.8
02:55 1016 30 845 24.95 15 59.1 76 10.8 51.5
03:00 1016 30 845 24.95 15 58.9 71 9.9 49.8
03:05 1016 30 845 24.95 15.2 59.3 73 10.3 50.6
03:10 1016 30 845 24.95 15.2 59.3 74 10.6 51
03:15 1016 30 845 24.95 15.2 59.3 72 10.3 50.5
03:20 1016 30 845 24.95 15.2 59.4 72 10.2 50.4
03:25 1016 30 845 24.95 15.3 59.6 70 10 49.9
03:30 1016 30 845 24.95 15.4 59.7 71 10.1 50.3
03:35 1016 30 845 24.95 15.3 59.5 68 9.4 48.9
03:40 1016 30 845 24.95 15.4 59.7 65 9 48.2
03:45 1016 30 845 24.95 15.5 59.9 65 8.9 48
03:50 1016 30 845 24.95 15.5 59.9 64 8.8 47.9
03:55 1016 30 845 24.95 15.4 59.8 63 8.6 47.4
04:00 1016 30 845 24.95 15.4 59.8 66 9.1 48.4
04:05 1016 30 845 24.95 15.3 59.5 65 8.9 48
04:10 1016 30 845 24.95 15.3 59.5 65 8.7 47.6
04:15 1016 30 845 24.95 15.3 59.6 64 8.7 47.6
04:20 1016 30 845 24.95 15.4 59.7 63 8.5 47.3
04:25 1016 30 846 24.98 15.5 59.9 63 8.6 47.4
04:30 1016 30 846 24.98 15.2 59.4 68 9.4 48.9
04:35 1016 30 846 24.98 14.6 58.3 69 9 48.2
04:40 1016 30 846 24.98 14.7 58.5 68 8.9 48
04:45 1016 30 846 24.98 14.8 58.7 68 9.1 48.4
04:50 1016 30 846 24.98 14.6 58.3 69 9.1 48.4
04:55 1016 30 846 24.98 14.5 58.1 70 9.1 48.3
05:00 1016 30 846 24.98 14.5 58 69 8.9 48.1
05:05 1017 30.03 846 24.98 14.6 58.2 69 9 48.2
05:10 1017 30.03 846 24.98 14.6 58.3 69 9.1 48.4
05:15 1017 30.03 846 24.98 14.6 58.2 69 9 48.3
05:20 1017 30.03 846 24.98 14.4 57.9 70 9.1 48.4
05:25 1017 30.03 846 24.98 14.4 57.9 69 8.9 48
05:30 1017 30.03 846 24.98 14.5 58.1 70 9.1 48.3
05:35 1017 30.03 846 24.98 14.6 58.3 69 9.1 48.3
05:40 1017 30.03 846 24.98 14.5 58.1 69 9 48.3
05:45 1017 30.03 846 24.98 14.3 57.8 70 9.1 48.3
05:50 1017 30.03 846 24.98 14.3 57.7 70 9 48.1
05:55 1017 30.03 846 24.98 14.4 58 70 9.1 48.5
06:00 1017 30.03 846 24.98 14.3 57.7 69 8.8 47.9
06:05 1017 30.03 846 24.98 14.4 57.9 69 8.8 47.8
06:10 1017 30.03 846 24.98 14.6 58.3 68 8.9 48
06:15 1017 30.03 846 24.98 14.7 58.5 69 9.1 48.4
06:20 1017 30.03 846 24.98 15 59 66 8.8 47.8
06:25 1017 30.03 846 24.98 15.2 59.3 66 9 48.2
06:30 1017 30.03 846 24.98 15.4 59.7 66 9.1 48.4
06:35 1017 30.03 846 24.98 15.7 60.3 66 9.4 48.9
06:40 1017 30.03 846 24.98 16 60.8 67 10 49.9
06:45 1017 30.03 846 24.98 16.6 61.9 58 8.4 47.2
06:50 1017 30.03 846 24.98 17 62.6 60 9.3 48.7
06:55 1017 30.03 846 24.98 17.1 62.7 60 9.4 48.9
07:00 1017 30.03 846 24.98 16.9 62.5 59 9 48.1
07:05 1017 30.03 846 24.98 17.2 63 58 8.9 48.1
07:10 1017 30.03 846 24.98 18 64.4 54 8.7 47.6
07:15 1017 30.03 846 24.98 18.9 65.9 48 7.6 45.7
07:20 1017 30.03 846 24.98 18.9 65.9 50 8.3 47
07:25 1017 30.03 846 24.98 19.6 67.3 48 8.3 46.9
07:30 1017 30.03 846 24.98 19.9 67.9 46 8.2 46.7
07:35 1017 30.03 846 24.98 20.2 68.3 44 7.7 45.8
07:40 1017 30.03 846 24.98 20.2 68.3 43 7.5 45.5
07:45 1017 30.03 846 24.98 20.1 68.1 45 7.9 46.2
07:50 1017 30.03 846 24.98 19.9 67.9 45 7.8 46
07:55 1017 30.03 846 24.98 20 68 44 7.5 45.4
08:00 1017 30.03 846 24.98 20.1 68.2 44 7.8 46
08:05 1017 30.03 846 24.98 19.9 67.8 46 8.1 46.5
08:10 1017 30.03 846 24.98 19.7 67.5 46 8 46.4
08:15 1017 30.03 846 24.98 19.8 67.6 45 7.8 46.1
08:20 1017 30.03 846 24.98 19.8 67.6 44 7.5 45.5
08:25 1017 30.03 846 24.98 19.7 67.5 45 7.6 45.8
08:30 1017 30.03 846 24.98 19.6 67.3 45 7.4 45.3
08:35 1017 30.03 846 24.98 19.5 67.1 45 7.5 45.5
08:40 1017 30.03 846 24.98 20.1 68.1 42 7 44.6
08:45 1017 30.03 846 24.98 20.5 69 42 7.2 45
08:50 1017 30.03 846 24.98 20.8 69.5 42 7.6 45.7
08:55 1017 30.03 846 24.98 21.1 70 41 7.5 45.5
09:00 1017 30.03 846 24.98 21.2 70.2 41 7.5 45.4
09:05 1017 30.03 846 24.98 21.2 70.2 40 7.4 45.3
09:10 1017 30.03 846 24.98 21.6 70.8 39 7 44.7
09:15 1017 30.03 846 24.98 21.6 70.9 39 7.1 44.7
09:20 1017 30.03 846 24.98 22 71.7 37 6.8 44.3
09:25 1017 30.03 846 24.98 22.8 73 35 6.9 44.4
09:30 1017 30.03 846 24.98 23.1 73.5 34 6.6 43.8
09:35 1017 30.03 846 24.98 22.8 73.1 31 5.2 41.3
09:40 1017 30.03 846 24.98 22.5 72.4 30 4.3 39.8
09:45 1017 30.03 846 24.98 22.4 72.2 31 4.6 40.2
09:50 1017 30.03 846 24.98 22.5 72.5 31 4.6 40.2
09:55 1017 30.03 846 24.98 22.7 72.8 29 4 39.1
10:00 1017 30.03 846 24.98 22.6 72.6 30 4.2 39.6
10:05 1017 30.03 846 24.98 23 73.4 30 4.5 40.1
10:10 1017 30.03 846 24.98 22.9 73.3 29 4.2 39.6
10:15 1017 30.03 846 24.98 23 73.5 28 4 39.1
10:20 1017 30.03 846 24.98 23.4 74.1 28 4.1 39.4
10:25 1017 30.03 846 24.98 23.8 74.9 27 4.1 39.4
10:30 1017 30.03 846 24.98 24.3 75.7 27 4.6 40.2
10:35 1017 30.03 846 24.98 24.5 76.1 27 4.6 40.3
10:40 1017 30.03 846 24.98 23.7 74.6 28 4.5 40.1
10:45 1017 30.03 846 24.98 23.2 73.7 28 4.1 39.3
10:50 1017 30.03 846 24.98 23.6 74.5 27 3.6 38.5
10:55 1017 30.03 846 24.98 23.3 73.9 27 3.6 38.5
11:00 1017 30.03 846 24.98 23.7 74.7 27 4 39.2
11:05 1016 30 846 24.98 24 75.3 26 3.4 38.1
11:10 1016 30 846 24.98 25.2 77.3 24 3.5 38.3
11:15 1016 30 846 24.98 25.4 77.8 24 3.7 38.7
11:20 1016 30 846 24.98 25.2 77.3 25 3.8 38.8
11:25 1016 30 846 24.98 24.9 76.9 25 3.7 38.7
11:30 1016 30 846 24.98 25 76.9 25 3.5 38.4
11:35 1016 30 845 24.95 25.1 77.2 26 4.7 40.5
11:40 1016 30 845 24.95 24.4 75.9 28 5.2 41.3
11:45 1016 30 846 24.98 24.4 76 25 3.5 38.3
11:50 1016 30 846 24.98 24.7 76.4 26 3.9 39
11:55 1016 30 845 24.95 24.7 76.5 26 3.9 39.1
12:00 1016 30 845 24.95 24.7 76.4 25 3.3 38
12:05 1016 30 845 24.95 25.1 77.1 24 3.3 37.9
12:10 1016 30 845 24.95 25.3 77.5 23 2.8 37
12:15 1016 30 845 24.95 25.7 78.3 23 3.3 38
12:20 1016 30 845 24.95 26.6 79.9 22 3.4 38.1
12:25 1016 30 845 24.95 26 78.8 22 3.2 37.8
12:30 1016 30 845 24.95 25.2 77.4 25 3.8 38.8
12:35 1016 30 845 24.95 25.1 77.1 24 3.4 38.1
12:40 1016 30 845 24.95 25 77 24 3.4 38.1
12:45 1016 30 845 24.95 25.3 77.6 22 2.6 36.7
12:50 1016 30 845 24.95 25.2 77.3 24 3.4 38.2
12:55 1016 30 845 24.95 24.4 76 26 3.9 39
13:00 1016 30 845 24.95 23.4 74.2 32 6.2 43.1
13:05 1016 30 846 24.98 21.3 70.3 39 6.8 44.2
13:10 1016 30 845 24.95 20.6 69.1 32 3.7 38.6
13:15 1016 30 846 24.98 21.5 70.6 34 5.1 41.2
13:20 1016 30 846 24.98 21.8 71.2 34 5.5 41.8
13:25 1016 30 846 24.98 22.1 71.7 35 6 42.7
13:30 1016 30 845 24.95 22.6 72.6 34 6 42.8
13:35 1016 30 845 24.95 22.6 72.6 32 5.4 41.8
13:40 1016 30 845 24.95 22.8 73 29 4.2 39.6
13:45 1016 30 845 24.95 23 73.5 28 4 39.2
13:50 1016 30 845 24.95 23.6 74.4 28 4 39.2
13:55 1016 30 845 24.95 23.6 74.6 28 4.5 40.1
14:00 1016 30 845 24.95 23.6 74.5 29 4.6 40.2
14:05 1016 30 845 24.95 23.2 73.8 27 3.2 37.8
14:10 1016 30 845 24.95 23.6 74.6 29 4.7 40.5
14:15 1016 30 845 24.95 23.9 75 32 6.4 43.6
14:20 1016 30 845 24.95 23.2 73.7 34 6.5 43.7
14:25 1016 30 845 24.95 23.5 74.2 33 6.4 43.5
14:30 1016 30 845 24.95 23.6 74.5 35 7.3 45.1
14:35 1016 30 845 24.95 24.1 75.5 31 6.1 43.1
14:40 1016 30 845 24.95 24 75.2 32 6.4 43.5
14:45 1016 30 845 24.95 23.2 73.7 32 5.8 42.4
14:50 1016 30 845 24.95 23 73.3 31 5.3 41.6
14:55 1016 30 845 24.95 22.8 73.1 31 5.1 41.1
15:00 1016 30 845 24.95 23.2 73.7 30 5 40.9
15:05 1016 30 845 24.95 22.3 72.2 36 6.7 44.1
15:10 1016 30 845 24.95 21.1 70 33 4.6 40.2
15:15 1016 30 845 24.95 21.1 69.9 35 5.2 41.3
15:20 1016 30 845 24.95 21.3 70.3 36 6 42.7
15:25 1016 30 845 24.95 21.2 70.2 38 6.3 43.4
15:30 1016 30 845 24.95 21.2 70.2 36 5.7 42.3
15:35 1016 30 846 24.98 21.3 70.4 45 9.2 48.5
15:40 1017 30.03 846 24.98 20.5 69 51 10.2 50.3
15:45 1017 30.03 846 24.98 19.5 67.2 50 9 48.3
15:50 1017 30.03 846 24.98 19.7 67.5 48 8.7 47.6
15:55 1017 30.03 846 24.98 20 67.9 50 9.4 48.9
16:00 1017 30.03 846 24.98 19.8 67.7 56 10.8 51.5
16:05 1017 30.03 846 24.98 19.5 67.1 54 10.1 50.3
16:10 1016 30 846 24.98 19.2 66.5 54 9.7 49.5
16:15 1016 30 845 24.95 19.2 66.5 53 9.3 48.8
16:20 1016 30 846 24.98 19 66.1 56 10.2 50.4
16:25 1017 30.03 846 24.98 18.7 65.7 57 10.2 50.4
16:30 1017 30.03 846 24.98 18.8 65.9 59 10.8 51.5
16:35 1017 30.03 846 24.98 18.9 66 58 10.5 50.9
16:40 1017 30.03 846 24.98 18.6 65.5 57 10.1 50.2
16:45 1017 30.03 846 24.98 18.5 65.4 54 9.2 48.6
16:50 1017 30.03 846 24.98 19 66.3 48 7.9 46.3
16:55 1017 30.03 846 24.98 19.4 66.9 45 7.4 45.3
17:00 1017 30.03 846 24.98 19.4 66.8 44 7 44.6
17:05 1017 30.03 846 24.98 19.2 66.5 46 7.5 45.5
17:10 1017 30.03 846 24.98 19.2 66.6 44 6.9 44.5
17:15 1017 30.03 846 24.98 19.5 67.1 42 6.2 43.2
17:20 1017 30.03 846 24.98 19.7 67.5 41 6.3 43.4
17:25 1017 30.03 846 24.98 19.8 67.7 40 6 42.9
17:30 1017 30.03 846 24.98 19.8 67.7 40 5.9 42.6
17:35 1017 30.03 847 25.01 19.6 67.3 43 6.7 44.1
17:40 1018 30.06 847 25.01 19 66.2 46 7.1 44.8
17:45 1018 30.06 847 25.01 18.7 65.6 47 7.1 44.8
17:50 1017 30.03 847 25.01 18.6 65.4 47 7.1 44.7
17:55 1017 30.03 847 25.01 18.5 65.3 46 6.7 44
18:00 1017 30.03 847 25.01 18.5 65.3 45 6.5 43.7
18:05 1017 30.03 846 24.98 18.5 65.2 47 6.9 44.5
18:10 1017 30.03 846 24.98 18.3 65 46 6.6 43.8
18:15 1017 30.03 846 24.98 18.4 65.2 44 6.1 43
18:20 1017 30.03 846 24.98 18.4 65.1 45 6.2 43.2
18:25 1017 30.03 846 24.98 18.4 65.1 44 6.1 42.9
18:30 1017 30.03 846 24.98 18.6 65.5 43 5.8 42.5
18:35 1017 30.03 846 24.98 18.5 65.3 44 6.3 43.3
18:40 1017 30.03 846 24.98 18.3 65 44 6 42.9
18:45 1017 30.03 846 24.98 18.3 65 43 5.6 42.1
18:50 1017 30.03 846 24.98 18.4 65.2 42 5.6 42
18:55 1017 30.03 846 24.98 18.6 65.4 42 5.5 41.9
19:00 1017 30.03 846 24.98 18.7 65.6 44 6.2 43.1
19:05 1017 30.03 846 24.98 18.7 65.6 48 7.5 45.6
19:10 1017 30.03 846 24.98 18.3 64.9 50 7.8 46.1
19:15 1017 30.03 846 24.98 18.2 64.7 51 8 46.4
19:20 1017 30.03 846 24.98 18.1 64.5 48 6.9 44.4
19:25 1017 30.03 846 24.98 18 64.5 50 7.4 45.4
19:30 1017 30.03 846 24.98 17.8 64.1 51 7.6 45.6
19:35 1017 30.03 846 24.98 17.7 63.9 52 7.7 45.9
19:40 1017 30.03 846 24.98 17.9 64.1 50 7.5 45.5
19:45 1017 30.03 846 24.98 17.9 64.3 50 7.5 45.6
19:50 1017 30.03 846 24.98 17.9 64.1 50 7.5 45.4
19:55 1017 30.03 846 24.98 17.8 64 50 7.2 44.9
20:00 1017 30.03 846 24.98 17.7 63.8 50 7.2 44.9
20:05 1017 30.03 846 24.98 17.6 63.7 51 7.4 45.3
20:10 1017 30.03 846 24.98 17.5 63.4 51 7.3 45.1
20:15 1017 30.03 846 24.98 17.3 63.1 51 7.1 44.8
20:20 1017 30.03 846 24.98 17.2 62.9 51 7.2 44.9
20:25 1017 30.03 846 24.98 17.1 62.8 54 7.9 46.1
20:30 1017 30.03 846 24.98 16.9 62.3 56 8.1 46.5
20:35 1017 30.03 846 24.98 16.7 62 57 8.1 46.6
20:40 1017 30.03 846 24.98 16.3 61.3 57 7.9 46.2
20:45 1017 30.03 846 24.98 16.3 61.4 56 7.6 45.6
20:50 1017 30.03 846 24.98 16.4 61.6 57 7.9 46.3
20:55 1017 30.03 846 24.98 16.5 61.7 55 7.5 45.6
21:00 1017 30.03 846 24.98 16.7 62.1 56 8.1 46.6
21:05 1017 30.03 847 25.01 16.6 61.9 56 7.9 46.2
21:10 1017 30.03 847 25.01 16.6 61.9 56 7.8 46
21:15 1017 30.03 847 25.01 16.7 62.1 57 8.2 46.8
21:20 1017 30.03 847 25.01 16.9 62.4 56 8.2 46.7
21:25 1018 30.06 847 25.01 16.9 62.4 56 8.2 46.8
21:30 1018 30.06 847 25.01 16.8 62.2 56 8.1 46.6
21:35 1018 30.06 847 25.01 16.7 62.1 56 8 46.4
21:40 1018 30.06 847 25.01 16.7 62 57 8.3 46.9
21:45 1018 30.06 847 25.01 16.6 61.8 59 8.6 47.4
21:50 1018 30.06 847 25.01 16.4 61.4 61 9 48.2
21:55 1018 30.06 847 25.01 15.7 60.2 65 9.2 48.6
22:00 1018 30.06 847 25.01 15.3 59.5 66 9 48.3
22:05 1018 30.06 847 25.01 15.2 59.4 63 8.4 47
22:10 1018 30.06 847 25.01 15.2 59.4 64 8.6 47.5
22:15 1018 30.06 847 25.01 15.3 59.6 63 8.3 47
22:20 1018 30.06 847 25.01 15.5 59.8 60 7.8 46.1
22:25 1018 30.06 847 25.01 15.8 60.4 61 8.3 46.9
22:30 1018 30.06 847 25.01 15.9 60.7 60 8.3 46.9
22:35 1018 30.06 847 25.01 15.9 60.6 60 8.3 47
22:40 1018 30.06 847 25.01 15.9 60.7 60 8.4 47.1
22:45 1018 30.06 847 25.01 15.9 60.7 62 8.6 47.6
22:50 1018 30.06 847 25.01 15.9 60.5 63 8.8 47.8
22:55 1018 30.06 847 25.01 15.8 60.4 62 8.5 47.3
23:00 1018 30.06 847 25.01 15.5 59.8 62 8.3 47
23:05 1018 30.06 847 25.01 15.3 59.5 61 7.9 46.2
23:10 1018 30.06 847 25.01 15.4 59.7 59 7.5 45.5
23:15 1018 30.06 847 25.01 15.5 60 61 8.1 46.5
23:20 1018 30.06 847 25.01 15.3 59.5 64 8.5 47.4
23:25 1018 30.06 847 25.01 15 59 65 8.6 47.5
23:30 1018 30.06 847 25.01 15 58.9 64 8.2 46.7
23:35 1018 30.06 847 25.01 14.8 58.6 62 7.6 45.6
23:40 1018 30.06 847 25.01 14.8 58.7 61 7.5 45.5
23:45 1018 30.06 847 25.01 14.8 58.7 60 7.2 45
23:50 1018 30.06 847 25.01 14.9 58.9 60 7.4 45.3
23:55 1018 30.06 847 25.01 14.9 58.8 62 7.7 45.9
24:00 1018 30.06 847 25.01 14.8 58.6 63 7.9 46.1